首页
METAR-TAF:

METAR-TAF

机场 :

三亚凤凰国际机场

三亚, 中华人民共和国

纬度: 18-18N, 经度: 109-24E, 海拔: 27米

当前天气观测

该预报发布于51分钟前的20:00 UTC
风速4节,风向北转西北
温度 26°C
湿度 89%
气压 1004 hPa
能见度10公里或以上
1500米以下无云,无积雨云

METAR: ZJSY 192000Z 34002MPS CAVOK 26/24 Q1004 NOSIG

时间: 04:51 (20:51 UTC)

预报

该预报发布于5小时和49分钟前的15:02 UTC
预报有效从19日的 18点(UTC)到 20日的 18点(UTC)
风速8节,风向西
能见度10公里或以上
散云层高于1800英尺
短暂存在
从 19日的 20点(UTC)到 20日的 02点(UTC)
散云层高于1600英尺
少量云层高于2500英尺, 积雨云.

TAF: ZJSY 191502Z 1918/2018 26004MPS 9999 SCT018 TX32/2006Z TN26/1921Z TEMPO 1920/2002 SCT016 FEW025CB

超过4000个机场的气象观测和天气预报(METAR&TAF报告)。

可查询的气象台以黄色和红色小点在地图上表示。

将鼠标移到小点上方,可查看气象台名称。

然后点击查看天气观测和预报。

如需切换地图:点击带黑十字的绿色按钮放大地图;点击带横线的绿色按钮缩小地图;或者点击绿色箭头查看邻近地区的地图。


METAR-TAF: